sensor_id;sensor_type;location;lat;lon;timestamp;pressure;altitude;pressure_sealevel;temperature;humidity
79752;BME280;69234;47.446;21.636;2023-12-20T00:00:18;100885.84;;;-2.46;100.00
79752;BME280;69234;47.446;21.636;2023-12-20T00:00:49;100871.91;;;-2.48;100.00
79752;BME280;69234;47.446;21.636;2023-12-20T00:01:20;100880.59;;;-2.46;100.00
79752;BME280;69234;47.446;21.636;2023-12-20T00:01:51;100882.28;;;-2.44;100.00
79752;BME280;69234;47.446;21.636;2023-12-20T00:02:22;100882.34;;;-2.45;100.00
79752;BME280;69234;47.446;21.636;2023-12-20T00:02:53;100879.72;;;-2.47;100.00
79752;BME280;69234;47.446;21.636;2023-12-20T00:03:24;100877.97;;;-2.46;100.00
79752;BME280;69234;47.446;21.636;2023-12-20T00:03:55;100882.22;;;-2.41;100.00
79752;BME280;69234;47.446;21.636;2023-12-20T00:04:26;100877.81;;;-2.38;100.00
79752;BME280;69234;47.446;21.636;2023-12-20T00:04:57;100870.88;;;-2.43;100.00
79752;BME280;69234;47.446;21.636;2023-12-20T00:05:28;100878.75;;;-2.41;100.00
79752;BME280;69234;47.446;21.636;2023-12-20T00:05:59;100874.28;;;-2.39;100.00
79752;BME280;69234;47.446;21.636;2023-12-20T00:06:30;100868.22;;;-2.41;100.00
79752;BME280;69234;47.446;21.636;2023-12-20T00:07:01;100870.97;;;-2.47;100.00
79752;BME280;69234;47.446;21.636;2023-12-20T00:07:32;100873.50;;;-2.43;100.00
79752;BME280;69234;47.446;21.636;2023-12-20T00:08:04;100878.81;;;-2.44;100.00
79752;BME280;69234;47.446;21.636;2023-12-20T00:08:36;100870.31;;;-2.55;100.00
79752;BME280;69234;47.446;21.636;2023-12-20T00:09:07;100871.19;;;-2.56;100.00
79752;BME280;69234;47.446;21.636;2023-12-20T00:09:38;100877.34;;;-2.57;100.00
79752;BME280;69234;47.446;21.636;2023-12-20T00:10:09;100879.06;;;-2.55;100.00
79752;BME280;69234;47.446;21.636;2023-12-20T00:10:40;100863.31;;;-2.56;100.00
79752;BME280;69234;47.446;21.636;2023-12-20T00:11:11;100867.69;;;-2.55;100.00
79752;BME280;69234;47.446;21.636;2023-12-20T00:11:42;100865.91;;;-2.55;100.00
79752;BME280;69234;47.446;21.636;2023-12-20T00:12:13;100868.50;;;-2.53;100.00
79752;BME280;69234;47.446;21.636;2023-12-20T00:12:44;100869.34;;;-2.51;100.00
79752;BME280;69234;47.446;21.636;2023-12-20T00:13:15;100864.97;;;-2.52;100.00
79752;BME280;69234;47.446;21.636;2023-12-20T00:13:46;100861.50;;;-2.54;100.00
79752;BME280;69234;47.446;21.636;2023-12-20T00:14:17;100868.66;;;-2.59;100.00
79752;BME280;69234;47.446;21.636;2023-12-20T00:14:48;100864.47;;;-2.68;100.00
79752;BME280;69234;47.446;21.636;2023-12-20T00:15:19;100872.22;;;-2.64;100.00
79752;BME280;69234;47.446;21.636;2023-12-20T00:15:50;100872.34;;;-2.67;100.00
79752;BME280;69234;47.446;21.636;2023-12-20T00:16:21;100874.97;;;-2.68;100.00
79752;BME280;69234;47.446;21.636;2023-12-20T00:16:52;100869.84;;;-2.73;100.00
79752;BME280;69234;47.446;21.636;2023-12-20T00:17:22;100863.66;;;-2.72;100.00
79752;BME280;69234;47.446;21.636;2023-12-20T00:17:53;100864.66;;;-2.76;100.00
79752;BME280;69234;47.446;21.636;2023-12-20T00:18:24;100872.47;;;-2.73;100.00
79752;BME280;69234;47.446;21.636;2023-12-20T00:18:55;100869.91;;;-2.76;100.00
79752;BME280;69234;47.446;21.636;2023-12-20T00:19:26;100868.06;;;-2.72;100.00
79752;BME280;69234;47.446;21.636;2023-12-20T00:19:57;100860.19;;;-2.74;100.00
79752;BME280;69234;47.446;21.636;2023-12-20T00:20:29;100863.59;;;-2.69;100.00
79752;BME280;69234;47.446;21.636;2023-12-20T00:21:00;100863.66;;;-2.72;100.00
79752;BME280;69234;47.446;21.636;2023-12-20T00:21:31;100854.13;;;-2.76;100.00
79752;BME280;69234;47.446;21.636;2023-12-20T00:22:02;100859.31;;;-2.73;100.00
79752;BME280;69234;47.446;21.636;2023-12-20T00:22:33;100853.09;;;-2.70;100.00
79752;BME280;69234;47.446;21.636;2023-12-20T00:23:03;100849.63;;;-2.71;100.00
79752;BME280;69234;47.446;21.636;2023-12-20T00:23:34;100848.75;;;-2.70;100.00
79752;BME280;69234;47.446;21.636;2023-12-20T00:24:06;100840.13;;;-2.76;100.00
79752;BME280;69234;47.446;21.636;2023-12-20T00:24:37;100841.84;;;-2.75;100.00
79752;BME280;69234;47.446;21.636;2023-12-20T00:25:08;100847.03;;;-2.72;100.00
79752;BME280;69234;47.446;21.636;2023-12-20T00:25:39;100844.41;;;-2.72;100.00
79752;BME280;69234;47.446;21.636;2023-12-20T00:26:10;100842.59;;;-2.70;100.00
79752;BME280;69234;47.446;21.636;2023-12-20T00:26:41;100836.53;;;-2.74;100.00
79752;BME280;69234;47.446;21.636;2023-12-20T00:27:13;100839.25;;;-2.77;100.00
79752;BME280;69234;47.446;21.636;2023-12-20T00:27:44;100842.81;;;-2.79;100.00
79752;BME280;69234;47.446;21.636;2023-12-20T00:28:15;100840.25;;;-2.82;100.00
79752;BME280;69234;47.446;21.636;2023-12-20T00:28:46;100842.88;;;-2.82;100.00
79752;BME280;69234;47.446;21.636;2023-12-20T00:29:16;100831.47;;;-2.81;100.00
79752;BME280;69234;47.446;21.636;2023-12-20T00:29:47;100836.78;;;-2.83;100.00
79752;BME280;69234;47.446;21.636;2023-12-20T00:30:20;100831.47;;;-2.81;100.00
79752;BME280;69234;47.446;21.636;2023-12-20T00:30:51;100825.34;;;-2.82;100.00
79752;BME280;69234;47.446;21.636;2023-12-20T00:31:22;100827.00;;;-2.78;100.00
79752;BME280;69234;47.446;21.636;2023-12-20T00:31:53;100823.56;;;-2.80;100.00
79752;BME280;69234;47.446;21.636;2023-12-20T00:32:24;100834.13;;;-2.83;100.00
79752;BME280;69234;47.446;21.636;2023-12-20T00:32:56;100822.84;;;-2.88;100.00
79752;BME280;69234;47.446;21.636;2023-12-20T00:33:27;100834.28;;;-2.89;100.00
79752;BME280;69234;47.446;21.636;2023-12-20T00:33:58;100833.22;;;-2.80;100.00
79752;BME280;69234;47.446;21.636;2023-12-20T00:34:29;100831.53;;;-2.84;100.00
79752;BME280;69234;47.446;21.636;2023-12-20T00:34:59;100827.16;;;-2.84;100.00
79752;BME280;69234;47.446;21.636;2023-12-20T00:35:30;100826.44;;;-2.91;100.00
79752;BME280;69234;47.446;21.636;2023-12-20T00:36:01;100827.31;;;-2.92;100.00
79752;BME280;69234;47.446;21.636;2023-12-20T00:36:32;100828.19;;;-2.91;100.00
79752;BME280;69234;47.446;21.636;2023-12-20T00:37:03;100830.00;;;-2.93;100.00
79752;BME280;69234;47.446;21.636;2023-12-20T00:37:34;100825.53;;;-2.91;100.00
79752;BME280;69234;47.446;21.636;2023-12-20T00:38:05;100820.16;;;-2.85;100.00
79752;BME280;69234;47.446;21.636;2023-12-20T00:38:37;100822.84;;;-2.88;100.00
79752;BME280;69234;47.446;21.636;2023-12-20T00:39:08;100818.44;;;-2.86;100.00
79752;BME280;69234;47.446;21.636;2023-12-20T00:39:39;100811.47;;;-2.89;100.00
79752;BME280;69234;47.446;21.636;2023-12-20T00:40:10;100821.97;;;-2.87;100.00
79752;BME280;69234;47.446;21.636;2023-12-20T00:40:41;100812.25;;;-2.83;100.00
79752;BME280;69234;47.446;21.636;2023-12-20T00:41:12;100816.56;;;-2.81;100.00
79752;BME280;69234;47.446;21.636;2023-12-20T00:41:43;100814.84;;;-2.82;100.00
79752;BME280;69234;47.446;21.636;2023-12-20T00:42:14;100814.03;;;-2.84;100.00
79752;BME280;69234;47.446;21.636;2023-12-20T00:42:45;100807.00;;;-2.85;100.00
79752;BME280;69234;47.446;21.636;2023-12-20T00:43:17;100807.00;;;-2.85;100.00
79752;BME280;69234;47.446;21.636;2023-12-20T00:43:48;100809.56;;;-2.82;100.00
79752;BME280;69234;47.446;21.636;2023-12-20T00:44:19;100810.50;;;-2.84;100.00
79752;BME280;69234;47.446;21.636;2023-12-20T00:44:50;100808.75;;;-2.84;100.00
79752;BME280;69234;47.446;21.636;2023-12-20T00:45:21;100813.19;;;-2.86;100.00
79752;BME280;69234;47.446;21.636;2023-12-20T00:45:52;100801.81;;;-2.87;100.00
79752;BME280;69234;47.446;21.636;2023-12-20T00:46:23;100807.81;;;-2.81;100.00
79752;BME280;69234;47.446;21.636;2023-12-20T00:46:54;100808.66;;;-2.81;100.00
79752;BME280;69234;47.446;21.636;2023-12-20T00:47:25;100803.59;;;-2.89;100.00
79752;BME280;69234;47.446;21.636;2023-12-20T00:47:56;100801.91;;;-2.91;100.00
79752;BME280;69234;47.446;21.636;2023-12-20T00:48:27;100809.72;;;-2.88;100.00
79752;BME280;69234;47.446;21.636;2023-12-20T00:48:58;100809.66;;;-2.85;100.00
79752;BME280;69234;47.446;21.636;2023-12-20T00:49:29;100806.94;;;-2.82;100.00
79752;BME280;69234;47.446;21.636;2023-12-20T00:49:59;100813.13;;;-2.83;100.00
79752;BME280;69234;47.446;21.636;2023-12-20T00:50:30;100800.78;;;-2.81;100.00
79752;BME280;69234;47.446;21.636;2023-12-20T00:51:01;100811.22;;;-2.78;100.00
79752;BME280;69234;47.446;21.636;2023-12-20T00:51:32;100807.78;;;-2.80;100.00
79752;BME280;69234;47.446;21.636;2023-12-20T00:52:03;100805.22;;;-2.83;100.00
79752;BME280;69234;47.446;21.636;2023-12-20T00:52:34;100809.50;;;-2.79;100.00
79752;BME280;69234;47.446;21.636;2023-12-20T00:53:05;100806.88;;;-2.79;100.00
79752;BME280;69234;47.446;21.636;2023-12-20T00:53:36;100813.91;;;-2.79;100.00
79752;BME280;69234;47.446;21.636;2023-12-20T00:54:07;100810.41;;;-2.80;100.00
79752;BME280;69234;47.446;21.636;2023-12-20T00:54:38;100804.38;;;-2.83;100.00
79752;BME280;69234;47.446;21.636;2023-12-20T00:55:09;100808.66;;;-2.79;100.00
79752;BME280;69234;47.446;21.636;2023-12-20T00:55:40;100800.00;;;-2.84;100.00
79752;BME280;69234;47.446;21.636;2023-12-20T00:56:11;100798.31;;;-2.87;100.00
79752;BME280;69234;47.446;21.636;2023-12-20T00:56:42;100806.16;;;-2.85;100.00
79752;BME280;69234;47.446;21.636;2023-12-20T00:57:13;100806.16;;;-2.85;100.00
79752;BME280;69234;47.446;21.636;2023-12-20T00:57:44;100799.13;;;-2.85;100.00
79752;BME280;69234;47.446;21.636;2023-12-20T00:58:15;100794.78;;;-2.86;100.00
79752;BME280;69234;47.446;21.636;2023-12-20T00:58:46;100792.16;;;-2.86;100.00
79752;BME280;69234;47.446;21.636;2023-12-20T00:59:16;100795.63;;;-2.84;100.00
79752;BME280;69234;47.446;21.636;2023-12-20T00:59:48;100796.44;;;-2.82;100.00
79752;BME280;69234;47.446;21.636;2023-12-20T01:00:20;100793.00;;;-2.85;100.00
79752;BME280;69234;47.446;21.636;2023-12-20T01:00:52;100794.84;;;-2.89;100.00
79752;BME280;69234;47.446;21.636;2023-12-20T01:01:23;100791.31;;;-2.88;100.00
79752;BME280;69234;47.446;21.636;2023-12-20T01:01:53;100793.09;;;-2.89;100.00
79752;BME280;69234;47.446;21.636;2023-12-20T01:02:25;100783.44;;;-2.88;100.00
79752;BME280;69234;47.446;21.636;2023-12-20T01:02:55;100791.28;;;-2.87;100.00
79752;BME280;69234;47.446;21.636;2023-12-20T01:03:26;100790.44;;;-2.87;100.00
79752;BME280;69234;47.446;21.636;2023-12-20T01:03:57;100786.00;;;-2.85;100.00
79752;BME280;69234;47.446;21.636;2023-12-20T01:04:28;100792.16;;;-2.86;100.00
79752;BME280;69234;47.446;21.636;2023-12-20T01:04:59;100784.28;;;-2.88;100.00
79752;BME280;69234;47.446;21.636;2023-12-20T01:05:30;100782.56;;;-2.89;100.00
79752;BME280;69234;47.446;21.636;2023-12-20T01:06:01;100776.56;;;-2.94;100.00
79752;BME280;69234;47.446;21.636;2023-12-20T01:06:32;100781.72;;;-2.89;100.00
79752;BME280;69234;47.446;21.636;2023-12-20T01:07:03;100783.50;;;-2.91;100.00
79752;BME280;69234;47.446;21.636;2023-12-20T01:07:34;100774.75;;;-2.90;100.00
79752;BME280;69234;47.446;21.636;2023-12-20T01:08:05;100779.94;;;-2.87;100.00
79752;BME280;69234;47.446;21.636;2023-12-20T01:08:37;100776.44;;;-2.89;100.00
79752;BME280;69234;47.446;21.636;2023-12-20T01:09:08;100771.13;;;-2.86;100.00
79752;BME280;69234;47.446;21.636;2023-12-20T01:09:39;100772.03;;;-2.87;100.00
79752;BME280;69234;47.446;21.636;2023-12-20T01:10:10;100772.91;;;-2.88;100.00
79752;BME280;69234;47.446;21.636;2023-12-20T01:10:41;100769.63;;;-2.96;100.00
79752;BME280;69234;47.446;21.636;2023-12-20T01:11:11;100768.81;;;-3.00;100.00
79752;BME280;69234;47.446;21.636;2023-12-20T01:11:43;100759.38;;;-3.08;100.00
79752;BME280;69234;47.446;21.636;2023-12-20T01:12:14;100761.13;;;-3.07;100.00
79752;BME280;69234;47.446;21.636;2023-12-20T01:12:45;100768.09;;;-3.06;100.00
79752;BME280;69234;47.446;21.636;2023-12-20T01:13:16;100762.78;;;-3.03;100.00
79752;BME280;69234;47.446;21.636;2023-12-20T01:13:46;100760.09;;;-3.02;100.00
79752;BME280;69234;47.446;21.636;2023-12-20T01:14:17;100763.56;;;-3.00;100.00
79752;BME280;69234;47.446;21.636;2023-12-20T01:14:48;100763.63;;;-3.03;100.00
79752;BME280;69234;47.446;21.636;2023-12-20T01:15:19;100757.53;;;-3.03;100.00
79752;BME280;69234;47.446;21.636;2023-12-20T01:15:50;100754.06;;;-3.05;100.00
79752;BME280;69234;47.446;21.636;2023-12-20T01:16:21;100755.81;;;-3.04;100.00
79752;BME280;69234;47.446;21.636;2023-12-20T01:16:53;100752.28;;;-3.03;100.00
79752;BME280;69234;47.446;21.636;2023-12-20T01:17:24;100756.53;;;-2.98;100.00
79752;BME280;69234;47.446;21.636;2023-12-20T01:17:55;100755.63;;;-2.98;100.00
79752;BME280;69234;47.446;21.636;2023-12-20T01:18:27;100747.00;;;-3.03;100.00
79752;BME280;69234;47.446;21.636;2023-12-20T01:18:58;100756.53;;;-2.98;100.00
79752;BME280;69234;47.446;21.636;2023-12-20T01:19:29;100754.72;;;-2.96;100.00
79752;BME280;69234;47.446;21.636;2023-12-20T01:20:00;100752.91;;;-2.94;100.00
79752;BME280;69234;47.446;21.636;2023-12-20T01:20:31;100751.16;;;-2.95;100.00
79752;BME280;69234;47.446;21.636;2023-12-20T01:21:03;100744.25;;;-2.97;100.00
79752;BME280;69234;47.446;21.636;2023-12-20T01:21:34;100752.06;;;-2.96;100.00
79752;BME280;69234;47.446;21.636;2023-12-20T01:22:05;100746.03;;;-2.99;100.00
79752;BME280;69234;47.446;21.636;2023-12-20T01:22:36;100752.06;;;-2.94;100.00
79752;BME280;69234;47.446;21.636;2023-12-20T01:23:07;100747.69;;;-2.95;100.00
79752;BME280;69234;47.446;21.636;2023-12-20T01:23:37;100746.88;;;-2.97;100.00
79752;BME280;69234;47.446;21.636;2023-12-20T01:24:08;100746.94;;;-3.00;100.00
79752;BME280;69234;47.446;21.636;2023-12-20T01:24:39;100746.03;;;-2.99;100.00
79752;BME280;69234;47.446;21.636;2023-12-20T01:25:10;100752.19;;;-3.00;100.00
79752;BME280;69234;47.446;21.636;2023-12-20T01:25:41;100743.47;;;-3.02;100.00
79752;BME280;69234;47.446;21.636;2023-12-20T01:26:12;100734.69;;;-3.01;100.00
79752;BME280;69234;47.446;21.636;2023-12-20T01:26:43;100733.88;;;-3.03;100.00
79752;BME280;69234;47.446;21.636;2023-12-20T01:27:14;100729.53;;;-3.06;100.00
79752;BME280;69234;47.446;21.636;2023-12-20T01:27:45;100736.56;;;-3.06;100.00
79752;BME280;69234;47.446;21.636;2023-12-20T01:28:16;100733.09;;;-3.07;100.00
79752;BME280;69234;47.446;21.636;2023-12-20T01:28:47;100734.00;;;-3.09;100.00
79752;BME280;69234;47.446;21.636;2023-12-20T01:29:18;100729.75;;;-3.14;100.00
79752;BME280;69234;47.446;21.636;2023-12-20T01:29:48;100724.47;;;-3.14;100.00
79752;BME280;69234;47.446;21.636;2023-12-20T01:30:19;100735.72;;;-3.08;100.00
79752;BME280;69234;47.446;21.636;2023-12-20T01:30:50;100732.22;;;-3.07;100.00
79752;BME280;69234;47.446;21.636;2023-12-20T01:31:21;100726.13;;;-3.09;100.00
79752;BME280;69234;47.446;21.636;2023-12-20T01:31:52;100726.13;;;-3.08;100.00
79752;BME280;69234;47.446;21.636;2023-12-20T01:32:23;100727.84;;;-3.08;100.00
79752;BME280;69234;47.446;21.636;2023-12-20T01:32:54;100726.13;;;-3.09;100.00
79752;BME280;69234;47.446;21.636;2023-12-20T01:33:25;100727.00;;;-3.09;100.00
79752;BME280;69234;47.446;21.636;2023-12-20T01:33:56;100727.06;;;-3.12;100.00
79752;BME280;69234;47.446;21.636;2023-12-20T01:34:27;100727.06;;;-3.12;100.00
79752;BME280;69234;47.446;21.636;2023-12-20T01:34:57;100729.75;;;-3.14;100.00
79752;BME280;69234;47.446;21.636;2023-12-20T01:35:28;100722.75;;;-3.15;100.00
79752;BME280;69234;47.446;21.636;2023-12-20T01:36:00;100725.47;;;-3.19;100.00
79752;BME280;69234;47.446;21.636;2023-12-20T01:36:31;100720.19;;;-3.18;100.00
79752;BME280;69234;47.446;21.636;2023-12-20T01:37:01;100725.34;;;-3.13;100.00
79752;BME280;69234;47.446;21.636;2023-12-20T01:37:33;100719.28;;;-3.17;100.00
79752;BME280;69234;47.446;21.636;2023-12-20T01:38:04;100712.41;;;-3.21;100.00
79752;BME280;69234;47.446;21.636;2023-12-20T01:38:35;100722.72;;;-3.13;100.00
79752;BME280;69234;47.446;21.636;2023-12-20T01:39:06;100719.28;;;-3.17;100.00
79752;BME280;69234;47.446;21.636;2023-12-20T01:39:37;100726.38;;;-3.20;100.00
79752;BME280;69234;47.446;21.636;2023-12-20T01:40:08;100705.50;;;-3.25;100.00
79752;BME280;69234;47.446;21.636;2023-12-20T01:40:39;100709.75;;;-3.21;100.00
79752;BME280;69234;47.446;21.636;2023-12-20T01:41:10;100718.50;;;-3.20;100.00
79752;BME280;69234;47.446;21.636;2023-12-20T01:41:41;100722.09;;;-3.24;100.00
79752;BME280;69234;47.446;21.636;2023-12-20T01:42:12;100717.72;;;-3.24;100.00
79752;BME280;69234;47.446;21.636;2023-12-20T01:42:43;100715.09;;;-3.24;100.00
79752;BME280;69234;47.446;21.636;2023-12-20T01:43:14;100715.13;;;-3.25;100.00
79752;BME280;69234;47.446;21.636;2023-12-20T01:43:45;100712.41;;;-3.21;100.00
79752;BME280;69234;47.446;21.636;2023-12-20T01:44:16;100716.78;;;-3.21;100.00
79752;BME280;69234;47.446;21.636;2023-12-20T01:44:47;100711.63;;;-3.26;100.00
79752;BME280;69234;47.446;21.636;2023-12-20T01:45:18;100709.72;;;-3.19;100.00
79752;BME280;69234;47.446;21.636;2023-12-20T01:45:49;100704.50;;;-3.21;100.00
79752;BME280;69234;47.446;21.636;2023-12-20T01:46:21;100702.66;;;-3.17;100.00
79752;BME280;69234;47.446;21.636;2023-12-20T01:46:52;100707.88;;;-3.14;100.00
79752;BME280;69234;47.446;21.636;2023-12-20T01:47:23;100708.03;;;-3.22;100.00
79752;BME280;69234;47.446;21.636;2023-12-20T01:47:58;100700.22;;;-3.25;100.00
79752;BME280;69234;47.446;21.636;2023-12-20T01:48:30;100710.63;;;-3.20;100.00
79752;BME280;69234;47.446;21.636;2023-12-20T01:49:03;100706.22;;;-3.18;100.00
79752;BME280;69234;47.446;21.636;2023-12-20T01:49:34;100706.22;;;-3.18;100.00
79752;BME280;69234;47.446;21.636;2023-12-20T01:50:06;100693.22;;;-3.24;100.00
79752;BME280;69234;47.446;21.636;2023-12-20T01:50:39;100705.31;;;-3.19;100.00
79752;BME280;69234;47.446;21.636;2023-12-20T01:51:11;100697.75;;;-3.31;100.00
79752;BME280;69234;47.446;21.636;2023-12-20T01:51:43;100701.13;;;-3.26;100.00
79752;BME280;69234;47.446;21.636;2023-12-20T01:52:14;100702.06;;;-3.28;100.00
79752;BME280;69234;47.446;21.636;2023-12-20T01:52:45;100699.53;;;-3.33;100.00
79752;BME280;69234;47.446;21.636;2023-12-20T01:53:17;100695.13;;;-3.31;100.00
79752;BME280;69234;47.446;21.636;2023-12-20T01:53:50;100700.31;;;-3.29;100.00
79752;BME280;69234;47.446;21.636;2023-12-20T01:54:21;100698.66;;;-3.32;100.00
79752;BME280;69234;47.446;21.636;2023-12-20T01:54:52;100691.66;;;-3.33;100.00
79752;BME280;69234;47.446;21.636;2023-12-20T01:55:28;100700.31;;;-3.28;100.00
79752;BME280;69234;47.446;21.636;2023-12-20T01:56:00;100700.41;;;-3.32;100.00
79752;BME280;69234;47.446;21.636;2023-12-20T01:56:32;100698.59;;;-3.29;100.00
79752;BME280;69234;47.446;21.636;2023-12-20T01:57:05;100698.66;;;-3.33;100.00
79752;BME280;69234;47.446;21.636;2023-12-20T01:57:37;100698.59;;;-3.30;100.00
79752;BME280;69234;47.446;21.636;2023-12-20T01:58:09;100702.09;;;-3.30;100.00
79752;BME280;69234;47.446;21.636;2023-12-20T01:58:45;100697.75;;;-3.31;100.00
79752;BME280;69234;47.446;21.636;2023-12-20T01:59:19;100707.34;;;-3.30;100.00
79752;BME280;69234;47.446;21.636;2023-12-20T01:59:51;100696.88;;;-3.31;100.00
79752;BME280;69234;47.446;21.636;2023-12-20T02:00:23;100703.00;;;-3.31;100.00
79752;BME280;69234;47.446;21.636;2023-12-20T02:00:57;100695.19;;;-3.34;100.00
79752;BME280;69234;47.446;21.636;2023-12-20T02:01:28;100693.41;;;-3.33;100.00
79752;BME280;69234;47.446;21.636;2023-12-20T02:02:00;100697.78;;;-3.32;100.00
79752;BME280;69234;47.446;21.636;2023-12-20T02:02:31;100692.56;;;-3.34;100.00
79752;BME280;69234;47.446;21.636;2023-12-20T02:03:02;100691.72;;;-3.36;100.00
79752;BME280;69234;47.446;21.636;2023-12-20T02:03:35;100696.91;;;-3.33;100.00
79752;BME280;69234;47.446;21.636;2023-12-20T02:04:07;100682.13;;;-3.37;100.00
79752;BME280;69234;47.446;21.636;2023-12-20T02:04:38;100689.00;;;-3.31;100.00
79752;BME280;69234;47.446;21.636;2023-12-20T02:05:09;100688.97;;;-3.30;100.00
79752;BME280;69234;47.446;21.636;2023-12-20T02:05:40;100688.03;;;-3.27;100.00
79752;BME280;69234;47.446;21.636;2023-12-20T02:06:11;100679.47;;;-3.36;100.00
79752;BME280;69234;47.446;21.636;2023-12-20T02:06:42;100683.84;;;-3.36;100.00
79752;BME280;69234;47.446;21.636;2023-12-20T02:07:14;100679.50;;;-3.37;100.00
79752;BME280;69234;47.446;21.636;2023-12-20T02:07:46;100683.81;;;-3.35;100.00
79752;BME280;69234;47.446;21.636;2023-12-20T02:08:17;100682.91;;;-3.32;100.00
79752;BME280;69234;47.446;21.636;2023-12-20T02:08:50;100678.56;;;-3.35;100.00
79752;BME280;69234;47.446;21.636;2023-12-20T02:09:22;100681.16;;;-3.33;100.00
79752;BME280;69234;47.446;21.636;2023-12-20T02:09:53;100671.69;;;-3.40;100.00
79752;BME280;69234;47.446;21.636;2023-12-20T02:10:24;100677.66;;;-3.33;100.00
79752;BME280;69234;47.446;21.636;2023-12-20T02:10:56;100674.25;;;-3.37;100.00
79752;BME280;69234;47.446;21.636;2023-12-20T02:11:27;100682.97;;;-3.35;100.00
79752;BME280;69234;47.446;21.636;2023-12-20T02:11:59;100674.25;;;-3.37;100.00
79752;BME280;69234;47.446;21.636;2023-12-20T02:12:30;100664.72;;;-3.41;100.00
79752;BME280;69234;47.446;21.636;2023-12-20T02:13:01;100672.53;;;-3.38;100.00
79752;BME280;69234;47.446;21.636;2023-12-20T02:13:32;100661.22;;;-3.42;100.00
79752;BME280;69234;47.446;21.636;2023-12-20T02:14:05;100673.38;;;-3.38;100.00
79752;BME280;69234;47.446;21.636;2023-12-20T02:14:35;100662.88;;;-3.38;100.00
79752;BME280;69234;47.446;21.636;2023-12-20T02:15:07;100660.19;;;-3.36;100.00
79752;BME280;69234;47.446;21.636;2023-12-20T02:15:38;100663.66;;;-3.34;100.00
79752;BME280;69234;47.446;21.636;2023-12-20T02:16:09;100663.75;;;-3.37;100.00
79752;BME280;69234;47.446;21.636;2023-12-20T02:16:40;100663.81;;;-3.40;100.00
79752;BME280;69234;47.446;21.636;2023-12-20T02:17:11;100660.31;;;-3.39;100.00
79752;BME280;69234;47.446;21.636;2023-12-20T02:17:42;100656.78;;;-3.40;100.00
79752;BME280;69234;47.446;21.636;2023-12-20T02:18:13;100653.22;;;-3.37;100.00
79752;BME280;69234;47.446;21.636;2023-12-20T02:18:47;100646.28;;;-3.40;100.00
79752;BME280;69234;47.446;21.636;2023-12-20T02:19:20;100652.31;;;-3.36;100.00
79752;BME280;69234;47.446;21.636;2023-12-20T02:19:51;100651.59;;;-3.41;100.00
79752;BME280;69234;47.446;21.636;2023-12-20T02:20:22;100649.69;;;-3.36;100.00
79752;BME280;69234;47.446;21.636;2023-12-20T02:20:54;100647.97;;;-3.37;100.00
79752;BME280;69234;47.446;21.636;2023-12-20T02:21:32;100655.06;;;-3.39;100.00
79752;BME280;69234;47.446;21.636;2023-12-20T02:22:10;100638.47;;;-3.41;100.00
79752;BME280;69234;47.446;21.636;2023-12-20T02:22:41;100649.81;;;-3.39;100.00
79752;BME280;69234;47.446;21.636;2023-12-20T02:23:12;100633.13;;;-3.38;100.00
79752;BME280;69234;47.446;21.636;2023-12-20T02:23:43;100643.66;;;-3.40;100.00
79752;BME280;69234;47.446;21.636;2023-12-20T02:24:14;100636.66;;;-3.39;100.00
79752;BME280;69234;47.446;21.636;2023-12-20T02:24:45;100630.59;;;-3.41;100.00
79752;BME280;69234;47.446;21.636;2023-12-20T02:25:16;100632.38;;;-3.43;100.00
79752;BME280;69234;47.446;21.636;2023-12-20T02:25:47;100628.09;;;-3.47;100.00
79752;BME280;69234;47.446;21.636;2023-12-20T02:26:18;100636.69;;;-3.41;100.00
79752;BME280;69234;47.446;21.636;2023-12-20T02:26:49;100628.06;;;-3.46;100.00
79752;BME280;69234;47.446;21.636;2023-12-20T02:27:20;100640.22;;;-3.42;100.00
79752;BME280;69234;47.446;21.636;2023-12-20T02:27:52;100626.25;;;-3.42;100.00
79752;BME280;69234;47.446;21.636;2023-12-20T02:28:23;100633.25;;;-3.43;100.00
79752;BME280;69234;47.446;21.636;2023-12-20T02:28:55;100637.47;;;-3.37;100.00
79752;BME280;69234;47.446;21.636;2023-12-20T02:29:26;100634.91;;;-3.40;100.00
79752;BME280;69234;47.446;21.636;2023-12-20T02:29:57;100635.88;;;-3.43;100.00
79752;BME280;69234;47.446;21.636;2023-12-20T02:30:28;100635.00;;;-3.43;100.00
79752;BME280;69234;47.446;21.636;2023-12-20T02:30:59;100635.00;;;-3.43;100.00
79752;BME280;69234;47.446;21.636;2023-12-20T02:31:30;100637.66;;;-3.45;100.00
79752;BME280;69234;47.446;21.636;2023-12-20T02:32:02;100638.53;;;-3.44;100.00
79752;BME280;69234;47.446;21.636;2023-12-20T02:32:33;100638.53;;;-3.44;100.00
79752;BME280;69234;47.446;21.636;2023-12-20T02:33:08;100636.81;;;-3.45;100.00
79752;BME280;69234;47.446;21.636;2023-12-20T02:33:42;100638.56;;;-3.46;100.00
79752;BME280;69234;47.446;21.636;2023-12-20T02:34:13;100634.19;;;-3.45;100.00
79752;BME280;69234;47.446;21.636;2023-12-20T02:34:44;100642.00;;;-3.42;100.00
79752;BME280;69234;47.446;21.636;2023-12-20T02:35:14;100628.94;;;-3.45;100.00
79752;BME280;69234;47.446;21.636;2023-12-20T02:35:45;100629.78;;;-3.45;100.00
79752;BME280;69234;47.446;21.636;2023-12-20T02:36:16;100635.84;;;-3.41;100.00
79752;BME280;69234;47.446;21.636;2023-12-20T02:36:47;100634.91;;;-3.40;100.00
79752;BME280;69234;47.446;21.636;2023-12-20T02:37:19;100628.81;;;-3.41;100.00
79752;BME280;69234;47.446;21.636;2023-12-20T02:37:50;100633.94;;;-3.36;100.00
79752;BME280;69234;47.446;21.636;2023-12-20T02:38:21;100627.91;;;-3.40;100.00
79752;BME280;69234;47.446;21.636;2023-12-20T02:38:52;100620.06;;;-3.41;100.00
79752;BME280;69234;47.446;21.636;2023-12-20T02:39:23;100630.59;;;-3.41;100.00